Main page
METAR-TAF:

METAR-TAF

Airports :

Agadir–Al Massira Airport

Agadir, Morocco

latitude: 30-20N, longitude: 009-24W, elevation: 74 m

Current weather observation

The report was made 19 minutes ago, at 08:00 UTC
Wind 7 kt from the East
Temperature 8°C
Humidity 81%
Pressure 1020 hPa
Visibility 10 km or more
no clouds below 1500 m and no cumulonimbus

METAR: GMAD 080800Z 08007KT CAVOK 08/05 Q1020 NOSIG

Time: 09:19 (08:19 UTC)

Forecast

The report was made 3 hours and 19 minutes ago, at 05:00 UTC
Forecast valid from 08 at 06 UTC to 09 at 12 UTC
Wind 4 kt from the Southwest
Visibility: 8000 m
Scattered clouds at a height of 2000 ft
Scattered clouds at a height of 10000 ft

TAF: GMAD 080500Z 0806/0912 22004KT 8000 SCT020 SCT100

Weather observations and forecasts of more than 4000 airports (METAR and TAF reports).

The available stations are represented by yellow and red dots on the map.

Hover mouse over dot to see the name of the station.

Then click to see weather observations and forecasts.

To change the map : click on the green buttons with a black cross to zoom in, on the green button with a dash to zoom out, or on the green arrows for adjacent maps.


METAR-TAF: